地図

経路データ

SID SEASON NUMBER BASIN SUBBASIN NAME ISO_TIME NATURE LAT LON WMO_WIND WMO_PRES WMO_AGENCY TRACK_TYPE DIST2LAND LANDFALL IFLAG USA_AGENCY USA_ATCF_ID USA_LAT USA_LON USA_RECORD USA_STATUS USA_WIND USA_PRES USA_SSHS USA_R34_NE USA_R34_SE USA_R34_SW USA_R34_NW USA_R50_NE USA_R50_SE USA_R50_SW USA_R50_NW USA_R64_NE USA_R64_SE USA_R64_SW USA_R64_NW USA_POCI USA_ROCI USA_RMW USA_EYE TOKYO_LAT TOKYO_LON TOKYO_GRADE TOKYO_WIND TOKYO_PRES TOKYO_R50_DIR TOKYO_R50_LONG TOKYO_R50_SHORT TOKYO_R30_DIR TOKYO_R30_LONG TOKYO_R30_SHORT TOKYO_LAND CMA_LAT CMA_LON CMA_CAT CMA_WIND CMA_PRES HKO_LAT HKO_LON HKO_CAT HKO_WIND HKO_PRES NEWDELHI_LAT NEWDELHI_LON NEWDELHI_GRADE NEWDELHI_WIND NEWDELHI_PRES NEWDELHI_CI NEWDELHI_DP NEWDELHI_POCI REUNION_LAT REUNION_LON REUNION_TYPE REUNION_WIND REUNION_PRES REUNION_TNUM REUNION_CI REUNION_RMW REUNION_R34_NE REUNION_R34_SE REUNION_R34_SW REUNION_R34_NW REUNION_R50_NE REUNION_R50_SE REUNION_R50_SW REUNION_R50_NW REUNION_R64_NE REUNION_R64_SE REUNION_R64_SW REUNION_R64_NW BOM_LAT BOM_LON BOM_TYPE BOM_WIND BOM_PRES BOM_TNUM BOM_CI BOM_RMW BOM_R34_NE BOM_R34_SE BOM_R34_SW BOM_R34_NW BOM_R50_NE BOM_R50_SE BOM_R50_SW BOM_R50_NW BOM_R64_NE BOM_R64_SE BOM_R64_SW BOM_R64_NW BOM_ROCI BOM_POCI BOM_EYE BOM_POS_METHOD BOM_PRES_METHOD NADI_LAT NADI_LON NADI_CAT NADI_WIND NADI_PRES WELLINGTON_LAT WELLINGTON_LON WELLINGTON_WIND WELLINGTON_PRES DS824_LAT DS824_LON DS824_STAGE DS824_WIND DS824_PRES TD9636_LAT TD9636_LON TD9636_STAGE TD9636_WIND TD9636_PRES TD9635_LAT TD9635_LON TD9635_WIND TD9635_PRES TD9635_ROCI NEUMANN_LAT NEUMANN_LON NEUMANN_CLASS NEUMANN_WIND NEUMANN_PRES MLC_LAT MLC_LON MLC_CLASS MLC_WIND MLC_PRES USA_GUST BOM_GUST BOM_GUST_PER REUNION_GUST REUNION_GUST_PER USA_SEAHGT USA_SEARAD_NE USA_SEARAD_SE USA_SEARAD_SW USA_SEARAD_NW STORM_SPEED STORM_DIR
1999033S14118 1999 11 SI WA NOT_NAMED 1999-02-02 00:00:00 TS -13.6000 117.500 main 470 470 O___________O_ jtwc_sh SH181999 -13.6000 117.500 25 -1 -13.6000 117.500 TC 25 5 137
1999033S14118 1999 11 SI WA NOT_NAMED 1999-02-02 03:00:00 TS -13.7975 117.685 main 483 483 P___________P_ SH181999 -13.7975 117.685 25 -1 -13.7975 117.685 TC 25 6 136
1999033S14118 1999 11 SI WA NOT_NAMED 1999-02-02 06:00:00 TS -14.0000 117.900 main 493 488 O___________O_ jtwc_sh SH181999 -14.0000 117.900 25 -1 -14.0000 117.900 TC 25 6 132
1999033S14118 1999 11 SI WA NOT_NAMED 1999-02-02 09:00:00 TS -14.2075 118.157 main 497 497 P___________P_ SH181999 -14.2075 118.157 25 -1 -14.2075 118.157 TC 25 6 130
1999033S14118 1999 11 SI WA NOT_NAMED 1999-02-02 12:00:00 TS -14.4000 118.400 main 509 491 O___________O_ jtwc_sh SH181999 -14.4000 118.400 25 -1 -14.4000 118.400 TC 25 5 132
1999033S14118 1999 11 SI WA NOT_NAMED 1999-02-02 15:00:00 TS -14.5575 118.565 main 484 469 P___________P_ SH181999 -14.5575 118.565 25 -1 -14.5575 118.565 TC 25 4 136
1999033S14118 1999 11 SI WA NOT_NAMED 1999-02-02 18:00:00 TS -14.7000 118.700 main 469 445 O___________O_ jtwc_sh SH181999 -14.7000 118.700 25 -1 -14.7000 118.700 TC 25 4 134
1999033S14118 1999 11 SI WA NOT_NAMED 1999-02-02 21:00:00 TS -14.8425 118.865 main 445 423 P___________P_ SH181999 -14.8425 118.865 25 -1 -14.8425 118.865 TC 25 4 136
1999033S14118 1999 11 SI WA NOT_NAMED 1999-02-03 00:00:00 TS -15.0000 119.000 main 423 402 O___________O_ jtwc_sh SH181999 -15.0000 119.000 25 -1 -15.0000 119.000 TC 25 4 150
1999033S14118 1999 11 SI WA NOT_NAMED 1999-02-03 03:00:00 TS -15.2000 119.073 main 402 391 P___________P_ SH181999 -15.2000 119.073 25 -1 -15.2000 119.073 TC 25 4 167
1999033S14118 1999 11 SI WA NOT_NAMED 1999-02-03 06:00:00 TS -15.4000 119.100 main 391 385 O___________O_ jtwc_sh SH181999 -15.4000 119.100 25 -1 -15.4000 119.100 TC 25 3 173
1999033S14118 1999 11 SI WA NOT_NAMED 1999-02-03 09:00:00 TS -15.5425 119.115 main 385 375 P___________P_ SH181999 -15.5425 119.115 25 -1 -15.5425 119.115 TC 25 3 0
1999033S14118 1999 11 SI WA NOT_NAMED 1999-02-03 12:00:00 TS -15.7000 119.100 main 375 365 O___________O_ jtwc_sh SH181999 -15.7000 119.100 25 -1 -15.7000 119.100 TC 25 4 0
1999033S14118 1999 11 SI WA NOT_NAMED 1999-02-03 15:00:00 TS -15.9200 119.087 main 365 356 P___________P_ SH181999 -15.9200 119.087 25 -1 -15.9200 119.087 TC 25 5 191
1999033S14118 1999 11 SI WA NOT_NAMED 1999-02-03 18:00:00 TS -16.2000 119.000 main 362 358 O___________O_ jtwc_sh SH181999 -16.2000 119.000 25 -1 -16.2000 119.000 TC 25 7 203
1999033S14118 1999 11 SI WA NOT_NAMED 1999-02-03 21:00:00 TS -16.5574 118.803 main 368 361 P___________P_ SH181999 -16.5574 118.803 25 -1 -16.5574 118.803 TC 25 9 214
1999033S14118 1999 11 SI WA NOT_NAMED 1999-02-04 00:00:00 TS -16.9000 118.500 main 363 346 O___________O_ jtwc_sh SH181999 -16.9000 118.500 25 -1 -16.9000 118.500 TC 25 9 229
1999033S14118 1999 11 SI WA NOT_NAMED 1999-02-04 03:00:00 TS -17.1225 118.122 main 351 341 P___________P_ SH181999 -17.1225 118.122 25 -1 -17.1225 118.122 TC 25 9 242
1999033S14118 1999 11 SI WA NOT_NAMED 1999-02-04 06:00:00 TS -17.3000 117.700 main 346 332 O___________O_ jtwc_sh SH181999 -17.3000 117.700 25 -1 -17.3000 117.700 TC 25 9 245
1999033S14118 1999 11 SI WA NOT_NAMED 1999-02-04 09:00:00 TS -17.4924 117.300 main 335 323 P___________P_ SH181999 -17.4924 117.300 25 -1 -17.4924 117.300 TC 25 9 242
1999033S14118 1999 11 SI WA NOT_NAMED 1999-02-04 12:00:00 TS -17.7000 116.900 main 324 302 O___________O_ jtwc_sh SH181999 -17.7000 116.900 25 -1 -17.7000 116.900 TC 25 9 239
1999033S14118 1999 11 SI WA NOT_NAMED 1999-02-04 15:00:00 TS -17.9424 116.507 main 302 273 P___________P_ SH181999 -17.9424 116.507 30 -1 -17.9424 116.507 TC 30 9 237
1999033S14118 1999 11 SI WA NOT_NAMED 1999-02-04 18:00:00 TS -18.2000 116.100 main 275 257 O___________O_ jtwc_sh SH181999 -18.2000 116.100 35 0 -18.2000 116.100 TC 35 9 236
1999033S14118 1999 11 SI WA NOT_NAMED 1999-02-04 21:00:00 TS -18.4722 115.688 main 257 256 P___________P_ SH181999 -18.4722 115.688 35 0 -18.4722 115.688 TC 35 10 240
1999033S14118 1999 11 SI WA NOT_NAMED 1999-02-05 00:00:00 TS -18.7000 115.200 main 264 264 O___________O_ jtwc_sh SH181999 -18.7000 115.200 35 0 -18.7000 115.200 TC 35 11 251
1999033S14118 1999 11 SI WA NOT_NAMED 1999-02-05 03:00:00 TS -18.8379 114.542 main 294 291 P___________P_ SH181999 -18.8379 114.542 35 0 -18.8379 114.542 TC 35 12 261
1999033S14118 1999 11 SI WA NOT_NAMED 1999-02-05 06:00:00 TS -18.9000 113.900 main 322 322 O___________O_ jtwc_sh SH181999 -18.9000 113.900 35 0 -18.9000 113.900 TC 35 10 266
1999033S14118 1999 11 SI WA NOT_NAMED 1999-02-05 09:00:00 TS -18.9147 113.455 main 339 339 P___________P_ SH181999 -18.9147 113.455 35 0 -18.9147 113.455 TC 35 8 270
1999033S14118 1999 11 SI WA NOT_NAMED 1999-02-05 12:00:00 TS -18.9000 113.100 main 348 348 O___________O_ jtwc_sh SH181999 -18.9000 113.100 35 0 -18.9000 113.100 TC 35 6 271
1999033S14118 1999 11 SI WA NOT_NAMED 1999-02-05 15:00:00 TS -18.9071 112.780 main 358 358 P___________P_ SH181999 -18.9071 112.780 35 0 -18.9071 112.780 TC 35 7 270
1999033S14118 1999 11 SI WA NOT_NAMED 1999-02-05 18:00:00 TS -18.9000 112.400 main 374 374 O___________O_ jtwc_sh SH181999 -18.9000 112.400 35 0 -18.9000 112.400 TC 35 9 272
1999033S14118 1999 11 SI WA NOT_NAMED 1999-02-05 21:00:00 TS -18.8803 111.815 main 406 406 P___________P_ SH181999 -18.8803 111.815 37 0 -18.8803 111.815 TC 37 11 275
1999033S14118 1999 11 SI WA NOT_NAMED 1999-02-06 00:00:00 TS -18.8000 111.200 main 453 453 O___________O_ jtwc_sh SH181999 -18.8000 111.200 40 0 -18.8000 111.200 TC 40 11 285
1999033S14118 1999 11 SI WA NOT_NAMED 1999-02-06 03:00:00 TS -18.5999 110.705 main 504 504 P___________P_ SH181999 -18.5999 110.705 40 0 -18.5999 110.705 TC 40 9 295
1999033S14118 1999 11 SI WA NOT_NAMED 1999-02-06 06:00:00 TS -18.4000 110.300 main 549 549 O___________O_ jtwc_sh SH181999 -18.4000 110.300 40 0 -18.4000 110.300 TC 40 8 293
1999033S14118 1999 11 SI WA NOT_NAMED 1999-02-06 09:00:00 TS -18.3049 109.970 main 580 580 P___________P_ SH181999 -18.3049 109.970 40 0 -18.3049 109.970 TC 40 6 280
1999033S14118 1999 11 SI WA NOT_NAMED 1999-02-06 12:00:00 TS -18.3000 109.700 main 602 602 O___________O_ jtwc_sh SH181999 -18.3000 109.700 40 0 -18.3000 109.700 TC 40 5 261
1999033S14118 1999 11 SI WA NOT_NAMED 1999-02-06 15:00:00 TS -18.3850 109.420 main 619 619 P___________P_ SH181999 -18.3850 109.420 40 0 -18.3850 109.420 TC 40 5 247
1999033S14118 1999 11 SI WA NOT_NAMED 1999-02-06 18:00:00 TS -18.5000 109.200 main 628 628 O___________O_ jtwc_sh SH181999 -18.5000 109.200 40 0 -18.5000 109.200 TC 40 4 241
1999033S14118 1999 11 SI WA NOT_NAMED 1999-02-06 21:00:00 TS -18.5649 109.077 main 630 630 P___________P_ SH181999 -18.5649 109.077 37 0 -18.5649 109.077 TC 37 2 242
1999033S14118 1999 11 SI WA NOT_NAMED 1999-02-07 00:00:00 TS -18.6000 109.000 main 638 638 O___________O_ jtwc_sh SH181999 -18.6000 109.000 35 0 -18.6000 109.000 TC 35 2 258
1999033S14118 1999 11 SI WA NOT_NAMED 1999-02-07 03:00:00 TS -18.6000 108.900 main 647 647 P___________P_ SH181999 -18.6000 108.900 35 0 -18.6000 108.900 TC 35 2 270
1999033S14118 1999 11 SI WA NOT_NAMED 1999-02-07 06:00:00 TS -18.6000 108.800 main 655 655 O___________O_ jtwc_sh SH181999 -18.6000 108.800 35 0 -18.6000 108.800 TC 35 2 259
1999033S14118 1999 11 SI WA NOT_NAMED 1999-02-07 09:00:00 TS -18.6350 108.707 main 664 658 P___________P_ SH181999 -18.6350 108.707 35 0 -18.6350 108.707 TC 35 2 242
1999033S14118 1999 11 SI WA NOT_NAMED 1999-02-07 12:00:00 TS -18.7000 108.600 main 667 667 O___________O_ jtwc_sh SH181999 -18.7000 108.600 35 0 -18.7000 108.600 TC 35 3 236
1999033S14118 1999 11 SI WA NOT_NAMED 1999-02-07 15:00:00 TS -18.7925 108.465 main 669 669 P___________P_ SH181999 -18.7925 108.465 35 0 -18.7925 108.465 TC 35 3 235
1999033S14118 1999 11 SI WA NOT_NAMED 1999-02-07 18:00:00 TS -18.9000 108.300 main 682 682 O___________O_ jtwc_sh SH181999 -18.9000 108.300 35 0 -18.9000 108.300 TC 35 4 237
1999033S14118 1999 11 SI WA NOT_NAMED 1999-02-07 21:00:00 TS -19.0159 108.098 main 694 694 P___________P_ SH181999 -19.0225 108.093 35 0 -19.0026 108.108 TC 35 4 242
1999033S14118 1999 11 SI WA NOT_NAMED 1999-02-08 00:00:00 TS -19.1000 107.900 main 708 708 O___________O_ jtwc_sh SH181999 -19.1000 107.900 35 0 -19.1000 107.900 TC 35 3 258
1999033S14118 1999 11 SI WA NOT_NAMED 1999-02-08 03:00:00 NR -19.0800 107.777 main 717 717 P_____________ SH181999 -19.0800 107.777 35 0 TC 2 298
1999033S14118 1999 11 SI WA NOT_NAMED 1999-02-08 06:00:00 NR -19.0000 107.700 main 731 731 O_____________ jtwc_sh SH181999 -19.0000 107.700 35 0 2 320
1999033S14118 1999 11 SI WA NOT_NAMED 1999-02-08 09:00:00 NR -18.9075 107.627 main 746 746 P_____________ SH181999 -18.9075 107.627 35 0 2 333
1999033S14118 1999 11 SI WA NOT_NAMED 1999-02-08 12:00:00 NR -18.8000 107.600 main 751 751 O_____________ jtwc_sh SH181999 -18.8000 107.600 35 0 2 348
1999033S14118 1999 11 SI WA NOT_NAMED 1999-02-08 15:00:00 NR -18.6849 107.590 main 757 753 P_____________ SH181999 -18.6849 107.590 35 0 2 27
1999033S14118 1999 11 SI WA NOT_NAMED 1999-02-08 18:00:00 NR -18.6000 107.700 main 753 726 O_____________ jtwc_sh SH181999 -18.6000 107.700 35 0 4 77
1999033S14118 1999 11 SI WA NOT_NAMED 1999-02-08 21:00:00 NR -18.5927 108.020 main 726 690 P_____________ SH181999 -18.5927 108.020 32 -1 7 90
1999033S14118 1999 11 SI WA NOT_NAMED 1999-02-09 00:00:00 NR -18.6000 108.400 main 690 673 O_____________ jtwc_sh SH181999 -18.6000 108.400 30 -1 6 88
1999033S14118 1999 11 SI WA NOT_NAMED 1999-02-09 03:00:00 NR -18.5724 108.657 main 664 653 P_____________ SH181999 -18.5724 108.657 30 -1 5 78
1999033S14118 1999 11 SI WA NOT_NAMED 1999-02-09 06:00:00 NR -18.5000 108.900 main 653 635 O_____________ jtwc_sh SH181999 -18.5000 108.900 30 -1 6 69
1999033S14118 1999 11 SI WA NOT_NAMED 1999-02-09 09:00:00 NR -18.3726 109.215 main 635 626 P_____________ SH181999 -18.3726 109.215 30 -1 6 62
1999033S14118 1999 11 SI WA NOT_NAMED 1999-02-09 12:00:00 NR -18.2000 109.500 main 626 625 O_____________ jtwc_sh SH181999 -18.2000 109.500 30 -1 5 49
1999033S14118 1999 11 SI WA NOT_NAMED 1999-02-09 15:00:00 NR -18.0223 109.635 main 633 626 P_____________ SH181999 -18.0223 109.635 27 -1 5 35
1999033S14118 1999 11 SI WA NOT_NAMED 1999-02-09 18:00:00 NR -17.8000 109.800 main 634 629 O_____________ jtwc_sh SH181999 -17.8000 109.800 25 -1 7 44
1999033S14118 1999 11 SI WA NOT_NAMED 1999-02-09 21:00:00 NR -17.5001 110.170 main 632 628 P_____________ SH181999 -17.5001 110.170 25 -1 10 52
1999033S14118 1999 11 SI WA NOT_NAMED 1999-02-10 00:00:00 NR -17.2000 110.600 main 634 629 O_____________ jtwc_sh SH181999 -17.2000 110.600 25 -1 9 56
1999033S14118 1999 11 SI WA NOT_NAMED 1999-02-10 03:00:00 NR -16.9849 110.965 main 631 631 P_____________ SH181999 -16.9849 110.965 25 -1 8 59
1999033S14118 1999 11 SI WA NOT_NAMED 1999-02-10 06:00:00 NR -16.8000 111.300 main 636 632 O_____________ jtwc_sh SH181999 -16.8000 111.300 25 -1 7 57
1999033S14118 1999 11 SI WA NOT_NAMED 1999-02-10 09:00:00 NR -16.5998 111.592 main 644 640 P_____________ SH181999 -16.5998 111.592 25 -1 7 55
1999033S14118 1999 11 SI WA NOT_NAMED 1999-02-10 12:00:00 NR -16.4000 111.900 main 653 650 O_____________ jtwc_sh SH181999 -16.4000 111.900 25 -1 8 58
1999033S14118 1999 11 SI WA NOT_NAMED 1999-02-10 15:00:00 NR -16.1999 112.270 main 662 657 P_____________ SH181999 -16.1999 112.270 25 -1 9 62
1999033S14118 1999 11 SI WA NOT_NAMED 1999-02-10 18:00:00 NR -16.0000 112.700 main 660 653 O_____________ jtwc_sh SH181999 -16.0000 112.700 25 -1 10 63
1999033S14118 1999 11 SI WA NOT_NAMED 1999-02-10 21:00:00 NR -15.7624 113.178 main 651 642 P_____________ SH181999 -15.7624 113.178 25 -1 10 67
1999033S14118 1999 11 SI WA NOT_NAMED 1999-02-11 00:00:00 NR -15.6000 113.700 main 642 618 O_____________ jtwc_sh SH181999 -15.6000 113.700 25 -1 11 79
1999033S14118 1999 11 SI WA NOT_NAMED 1999-02-11 03:00:00 NR -15.5675 114.250 main 614 583 P_____________ SH181999 -15.5675 114.250 25 -1 11 95
1999033S14118 1999 11 SI WA NOT_NAMED 1999-02-11 06:00:00 NR -15.7000 114.800 main 583 535 O_____________ jtwc_sh SH181999 -15.7000 114.800 25 -1 11 113
1999033S14118 1999 11 SI WA NOT_NAMED 1999-02-11 09:00:00 NR -16.0027 115.312 main 535 479 P_____________ SH181999 -16.0027 115.312 25 -1 12 126
1999033S14118 1999 11 SI WA NOT_NAMED 1999-02-11 12:00:00 NR -16.4000 115.800 main 479 O_____________ jtwc_sh SH181999 -16.4000 115.800 25 -1 12 130

IBTrACS Databaseについて

本データベースは、米国NOAAが公開する1842年以降の世界の熱帯低気圧のベストトラックデータアーカイブInternational Best Track Archive for Climate Stewardship (IBTrACS)を、ウェブで閲覧しやすい形式に変換したものです。

最終更新日:2021-11-26